Time;durP1;ratioP1;P1;durP2;ratioP2;P2;SDS_P1;SDS_P2;PMS_P1;PMS_P2;Temp;Humidity;BMP_temperature;BMP_pressure;BME280_temperature;BME280_humidity;BME280_pressure;Samples;Min_cycle;Max_cycle;Signal;HPM_P1;HPM_P2
2023/03/01 00:02:21;;;;;;;2.47;1.52;;;19.70;27.50;;;;;;5052254;28;20087;-55
2023/03/01 00:04:47;;;;;;;2.45;1.80;;;19.80;27.50;;;;;;5051974;28;20067;-54
2023/03/01 00:07:12;;;;;;;3.08;1.92;;;19.70;27.50;;;;;;5052064;28;20039;-52
2023/03/01 00:09:39;;;;;;;3.83;2.28;;;19.70;27.50;;;;;;5049243;28;20112;-54
2023/03/01 00:12:06;;;;;;;5.57;1.92;;;19.70;27.50;;;;;;5052366;28;20040;-56
2023/03/01 00:14:32;;;;;;;3.33;1.98;;;19.70;27.50;;;;;;5049938;28;20033;-53
2023/03/01 00:16:58;;;;;;;2.28;1.90;;;19.70;27.50;;;;;;5053025;28;20028;-54
2023/03/01 00:19:24;;;;;;;2.00;1.60;;;19.70;27.50;;;;;;5051006;28;20041;-55
2023/03/01 00:21:49;;;;;;;2.13;1.45;;;19.70;27.50;;;;;;5050796;28;20112;-54
2023/03/01 00:24:16;;;;;;;1.95;1.48;;;19.70;27.50;;;;;;5052713;28;20120;-51
2023/03/01 00:26:42;;;;;;;2.13;1.50;;;19.70;27.50;;;;;;5050172;28;20523;-54
2023/03/01 00:29:08;;;;;;;2.78;1.73;;;19.70;27.50;;;;;;5052468;28;20096;-54
2023/03/01 00:31:34;;;;;;;2.38;1.45;;;19.70;27.50;;;;;;5051597;28;20119;-55
2023/03/01 00:34:02;;;;;;;2.50;1.88;;;19.70;27.50;;;;;;5054822;28;20472;-55
2023/03/01 00:36:33;;;;;;;2.22;1.35;;;19.70;27.50;;;;;;5054292;28;20040;-53
2023/03/01 00:38:59;;;;;;;3.75;1.67;;;19.70;27.50;;;;;;5056862;28;20057;-51
2023/03/01 00:41:29;;;;;;;3.05;1.90;;;19.70;27.50;;;;;;5054135;28;20037;-53
2023/03/01 00:43:55;;;;;;;3.33;1.40;;;19.70;27.50;;;;;;5053976;28;20116;-55
2023/03/01 00:46:24;;;;;;;3.35;1.92;;;19.60;27.40;;;;;;5056665;28;20425;-51
2023/03/01 00:48:50;;;;;;;1.80;1.52;;;19.70;27.50;;;;;;5053673;28;20122;-50
2023/03/01 00:51:18;;;;;;;3.38;1.73;;;19.60;27.40;;;;;;5054911;28;20029;-53
2023/03/01 00:53:45;;;;;;;1.85;1.42;;;19.60;27.40;;;;;;5053985;28;20056;-54
2023/03/01 00:56:12;;;;;;;3.15;1.95;;;19.60;27.40;;;;;;5055276;28;20439;-53
2023/03/01 00:58:39;;;;;;;2.53;1.60;;;19.60;27.40;;;;;;5054440;28;20029;-53
2023/03/01 01:01:17;;;;;;;3.75;1.65;;;19.60;27.40;;;;;;5054910;28;20032;-54
2023/03/01 01:04:11;;;;;;;2.05;1.63;;;19.60;27.40;;;;;;5053764;28;20032;-55
2023/03/01 01:06:47;;;;;;;2.75;1.60;;;19.60;27.40;;;;;;5052492;28;20341;-54
2023/03/01 01:09:18;;;;;;;3.33;1.70;;;19.50;27.40;;;;;;5056807;28;20112;-53
2023/03/01 01:11:47;;;;;;;2.47;1.73;;;19.60;27.50;;;;;;5055351;28;20339;-53
2023/03/01 01:14:14;;;;;;;1.90;1.50;;;19.60;27.40;;;;;;5055483;28;20029;-54
2023/03/01 01:16:40;;;;;;;2.53;1.48;;;19.60;27.40;;;;;;5055861;28;20044;-53
2023/03/01 01:19:06;;;;;;;1.90;1.45;;;19.60;27.50;;;;;;5053854;28;20436;-55
2023/03/01 01:21:32;;;;;;;3.45;1.50;;;19.50;27.40;;;;;;5054831;28;20029;-52
2023/03/01 01:23:59;;;;;;;2.25;1.45;;;19.60;27.50;;;;;;5054547;28;20061;-55
2023/03/01 01:26:28;;;;;;;2.13;1.63;;;19.50;27.50;;;;;;5052770;28;20456;-54
2023/03/01 01:28:54;;;;;;;1.65;1.40;;;19.50;27.40;;;;;;5055583;28;20112;-56
2023/03/01 01:31:23;;;;;;;2.15;1.52;;;19.50;27.40;;;;;;5054085;28;20040;-55
2023/03/01 01:33:49;;;;;;;1.83;1.48;;;19.50;27.40;;;;;;5054177;28;20025;-53
2023/03/01 01:36:16;;;;;;;3.25;1.70;;;19.50;27.40;;;;;;5053191;28;20061;-53
2023/03/01 01:38:42;;;;;;;1.92;1.38;;;19.50;27.50;;;;;;5055566;28;20460;-55
2023/03/01 01:41:11;;;;;;;2.05;1.50;;;19.50;27.40;;;;;;5052934;28;20453;-54
2023/03/01 01:43:43;;;;;;;2.40;1.40;;;19.50;27.50;;;;;;5052917;28;20032;-54
2023/03/01 01:46:30;;;;;;;1.92;1.38;;;19.50;27.50;;;;;;5053668;28;20025;-56
2023/03/01 01:49:05;;;;;;;2.75;1.65;;;19.50;28.00;;;;;;5052925;28;20448;-56
2023/03/01 01:51:43;;;;;;;2.25;1.60;;;19.50;27.50;;;;;;5053935;28;20083;-54
2023/03/01 01:54:18;;;;;;;2.53;1.80;;;19.50;27.50;;;;;;5050850;28;20468;-54
2023/03/01 01:56:50;;;;;;;2.05;1.70;;;19.40;27.50;;;;;;5053099;28;20037;-53
2023/03/01 01:59:16;;;;;;;1.92;1.50;;;19.50;27.50;;;;;;5052555;28;20033;-54
2023/03/01 02:01:43;;;;;;;2.47;1.70;;;19.50;27.50;;;;;;5044569;28;20116;-53
2023/03/01 02:04:09;;;;;;;4.05;1.60;;;19.40;27.50;;;;;;5046256;28;20404;-55
2023/03/01 02:06:41;;;;;;;2.53;1.40;;;19.50;27.50;;;;;;5053821;28;20060;-54
2023/03/01 02:09:15;;;;;;;2.33;1.33;;;19.50;27.50;;;;;;5055803;28;20029;-53
2023/03/01 02:11:41;;;;;;;1.70;1.20;;;19.50;27.50;;;;;;5051658;28;20025;-51
2023/03/01 02:14:07;;;;;;;4.10;1.80;;;19.40;27.50;;;;;;5054359;28;20028;-53
2023/03/01 02:16:33;;;;;;;2.47;1.20;;;19.50;27.50;;;;;;5054710;28;20445;-53
2023/03/01 02:19:04;;;;;;;2.25;1.45;;;19.40;27.50;;;;;;5053861;28;20149;-53
2023/03/01 02:21:50;;;;;;;1.92;1.20;;;19.40;27.40;;;;;;5051355;28;20067;-53
2023/03/01 02:24:29;;;;;;;2.40;1.60;;;19.40;27.50;;;;;;5051856;28;20340;-53
2023/03/01 02:26:56;;;;;;;6.53;1.92;;;19.40;27.50;;;;;;5049684;28;20119;-54
2023/03/01 02:29:24;;;;;;;2.03;1.30;;;19.40;27.50;;;;;;5054147;28;20051;-54
2023/03/01 02:31:52;;;;;;;1.65;1.27;;;19.40;27.50;;;;;;5053303;28;20024;-57
2023/03/01 02:34:25;;;;;;;1.60;1.50;;;19.40;27.50;;;;;;5052478;28;20050;-54
2023/03/01 02:37:04;;;;;;;2.25;1.40;;;19.40;27.50;;;;;;5054285;28;20049;-52
2023/03/01 02:39:44;;;;;;;1.70;1.30;;;19.40;27.50;;;;;;5051355;28;20115;-53
2023/03/01 02:42:14;;;;;;;2.25;1.45;;;19.40;27.50;;;;;;5053255;28;20053;-55
2023/03/01 02:44:40;;;;;;;1.30;1.15;;;19.30;27.50;;;;;;5050048;28;20357;-54
2023/03/01 02:47:07;;;;;;;1.40;1.27;;;19.40;27.50;;;;;;5054101;28;20029;-54
2023/03/01 02:49:35;;;;;;;1.92;1.25;;;19.40;27.60;;;;;;5051324;28;20039;-54
2023/03/01 02:52:26;;;;;;;2.13;1.30;;;19.30;27.50;;;;;;5053548;28;20451;-55
2023/03/01 02:55:13;;;;;;;2.45;1.33;;;19.30;27.50;;;;;;5049574;28;20086;-52
2023/03/01 02:57:43;;;;;;;2.03;1.33;;;19.30;27.50;;;;;;5049157;28;20060;-52
2023/03/01 03:00:19;;;;;;;1.40;1.20;;;19.30;28.00;;;;;;5051392;28;20035;-54
2023/03/01 03:02:46;;;;;;;2.15;1.33;;;19.30;27.50;;;;;;5074217;28;20032;-54
2023/03/01 03:05:20;;;;;;;1.67;1.27;;;19.30;27.50;;;;;;5050052;28;20112;-54
2023/03/01 03:07:47;;;;;;;2.88;1.35;;;19.30;27.50;;;;;;5049668;28;20112;-55
2023/03/01 03:10:29;;;;;;;1.35;1.20;;;19.30;27.50;;;;;;5052688;28;20037;-53
2023/03/01 03:12:58;;;;;;;2.08;1.23;;;19.30;27.60;;;;;;5052103;28;20041;-54
2023/03/01 03:15:25;;;;;;;2.10;1.40;;;19.30;27.50;;;;;;5052592;28;20040;-55
2023/03/01 03:17:52;;;;;;;1.55;1.00;;;19.30;27.60;;;;;;5050718;28;20032;-54
2023/03/01 03:20:21;;;;;;;1.52;1.20;;;19.30;27.50;;;;;;5051670;28;20036;-55
2023/03/01 03:22:52;;;;;;;2.45;1.30;;;19.20;27.50;;;;;;5052747;28;20028;-55
2023/03/01 03:25:19;;;;;;;1.17;1.08;;;19.30;27.50;;;;;;5050194;28;20107;-54
2023/03/01 03:27:46;;;;;;;2.17;1.40;;;19.30;27.50;;;;;;5053667;28;20033;-53
2023/03/01 03:30:18;;;;;;;1.90;1.35;;;19.20;27.50;;;;;;5053383;28;20049;-56
2023/03/01 03:32:52;;;;;;;2.17;1.38;;;19.20;27.50;;;;;;5051418;28;20037;-54
2023/03/01 03:35:39;;;;;;;1.27;1.00;;;19.20;27.50;;;;;;5052128;28;20325;-54
2023/03/01 03:38:15;;;;;;;1.52;1.30;;;19.20;27.50;;;;;;5050660;28;20445;-55
2023/03/01 03:40:44;;;;;;;1.50;1.05;;;19.20;27.50;;;;;;5050997;28;20029;-51
2023/03/01 03:43:14;;;;;;;2.13;1.50;;;19.20;27.50;;;;;;5050259;28;20410;-55
2023/03/01 03:45:41;;;;;;;1.85;1.40;;;19.20;27.50;;;;;;5053473;28;20024;-55
2023/03/01 03:48:09;;;;;;;2.25;1.40;;;19.20;27.50;;;;;;5052892;28;20025;-51
2023/03/01 03:50:36;;;;;;;2.03;1.15;;;19.20;27.50;;;;;;5051092;28;20044;-53
2023/03/01 03:53:06;;;;;;;2.35;1.20;;;19.20;27.50;;;;;;5053632;28;20025;-54
2023/03/01 03:55:33;;;;;;;1.58;1.08;;;19.20;27.50;;;;;;5051789;28;20088;-55
2023/03/01 03:58:06;;;;;;;2.88;1.42;;;19.20;27.50;;;;;;5050804;28;20037;-54
2023/03/01 04:00:37;;;;;;;1.90;1.13;;;19.20;27.50;;;;;;5053644;28;20032;-52
2023/03/01 04:03:03;;;;;;;2.13;1.20;;;19.20;27.50;;;;;;5049620;28;20033;-54
2023/03/01 04:05:29;;;;;;;2.20;1.20;;;19.10;27.40;;;;;;5052981;28;20021;-54
2023/03/01 04:08:01;;;;;;;2.22;1.05;;;19.20;27.50;;;;;;5054813;28;20024;-53
2023/03/01 04:10:33;;;;;;;1.70;1.20;;;19.20;27.50;;;;;;5056652;28;20533;-54
2023/03/01 04:12:59;;;;;;;2.22;1.35;;;19.10;27.40;;;;;;5057045;28;20110;-53
2023/03/01 04:15:26;;;;;;;2.58;1.30;;;19.10;27.40;;;;;;5056785;28;20461;-54
2023/03/01 04:17:53;;;;;;;1.60;0.90;;;19.10;27.40;;;;;;5053864;28;20077;-54
2023/03/01 04:20:25;;;;;;;1.92;1.40;;;19.10;27.40;;;;;;5057034;28;20025;-55
2023/03/01 04:23:15;;;;;;;2.03;1.00;;;19.10;27.40;;;;;;5055132;28;20036;-54
2023/03/01 04:26:00;;;;;;;1.88;1.25;;;19.10;27.40;;;;;;5054989;28;20037;-53
2023/03/01 04:28:30;;;;;;;1.65;1.08;;;19.10;27.40;;;;;;5055149;28;20025;-55
2023/03/01 04:30:58;;;;;;;2.38;1.27;;;19.10;27.40;;;;;;5056334;28;20491;-56
2023/03/01 04:33:25;;;;;;;1.50;1.15;;;19.10;27.50;;;;;;5055418;28;20029;-53
2023/03/01 04:35:51;;;;;;;1.85;1.30;;;19.10;27.50;;;;;;5053933;28;20436;-54
2023/03/01 04:38:18;;;;;;;2.35;1.17;;;19.10;27.50;;;;;;5056620;28;20040;-53
2023/03/01 04:40:45;;;;;;;1.70;1.00;;;19.10;27.50;;;;;;5055828;28;20063;-53
2023/03/01 04:43:14;;;;;;;1.58;1.10;;;19.10;27.50;;;;;;5054195;28;20028;-53
2023/03/01 04:45:40;;;;;;;1.35;0.98;;;19.10;27.50;;;;;;5056073;28;20025;-53
2023/03/01 04:48:06;;;;;;;2.13;1.00;;;19.10;27.50;;;;;;5052872;28;20481;-54
2023/03/01 04:50:32;;;;;;;2.28;1.10;;;19.10;27.50;;;;;;5056267;28;20037;-55
2023/03/01 04:53:00;;;;;;;2.17;1.30;;;19.10;27.50;;;;;;5056334;28;20039;-53
2023/03/01 04:55:27;;;;;;;1.50;1.10;;;19.00;27.40;;;;;;5056138;28;20151;-52
2023/03/01 04:57:54;;;;;;;1.55;0.95;;;19.00;27.40;;;;;;5053994;28;20037;-55
2023/03/01 05:00:21;;;;;;;1.80;1.20;;;19.00;28.00;;;;;;5055127;28;20033;-54
2023/03/01 05:02:53;;;;;;;2.47;1.05;;;19.10;27.50;;;;;;5054604;28;20095;-50
2023/03/01 05:05:27;;;;;;;1.60;1.15;;;19.00;27.50;;;;;;5045278;28;20493;-53
2023/03/01 05:07:55;;;;;;;1.38;0.98;;;19.00;27.50;;;;;;5047689;28;20166;-54
2023/03/01 05:10:23;;;;;;;1.90;1.23;;;19.00;27.50;;;;;;5052842;28;20035;-54
2023/03/01 05:12:49;;;;;;;2.60;1.30;;;19.00;27.50;;;;;;5054304;28;20060;-54
2023/03/01 05:15:16;;;;;;;1.88;1.20;;;19.00;27.50;;;;;;5055575;28;20051;-55
2023/03/01 05:17:42;;;;;;;1.35;1.00;;;19.00;27.50;;;;;;5053690;28;20106;-50
2023/03/01 05:20:08;;;;;;;2.00;1.10;;;19.00;27.50;;;;;;5055750;28;20368;-55
2023/03/01 05:22:35;;;;;;;1.77;1.10;;;19.00;27.50;;;;;;5055336;28;20025;-52
2023/03/01 05:25:01;;;;;;;1.20;0.95;;;19.00;27.50;;;;;;5051934;28;20044;-51
2023/03/01 05:27:29;;;;;;;1.30;0.80;;;19.00;27.50;;;;;;5055289;28;20368;-55
2023/03/01 05:29:56;;;;;;;1.10;0.98;;;19.00;27.50;;;;;;5055677;28;20029;-52
2023/03/01 05:32:21;;;;;;;2.08;1.20;;;19.00;27.50;;;;;;5053680;28;20040;-53
2023/03/01 05:34:47;;;;;;;1.95;1.10;;;19.00;27.50;;;;;;5054908;28;20021;-51
2023/03/01 05:37:14;;;;;;;2.08;1.02;;;19.00;27.50;;;;;;5055410;28;20101;-53
2023/03/01 05:39:41;;;;;;;2.17;1.08;;;19.00;27.50;;;;;;5053353;28;20116;-54
2023/03/01 05:42:10;;;;;;;1.67;1.08;;;19.00;27.50;;;;;;5054942;28;20120;-52
2023/03/01 05:44:37;;;;;;;1.20;1.00;;;18.90;27.50;;;;;;5052559;28;20445;-54
2023/03/01 05:47:03;;;;;;;1.92;1.27;;;18.90;27.50;;;;;;5053837;28;20112;-56
2023/03/01 05:49:29;;;;;;;1.48;1.00;;;18.90;27.50;;;;;;5051251;28;20186;-52
2023/03/01 05:51:55;;;;;;;1.55;1.10;;;18.90;27.50;;;;;;5055253;28;20134;-54
2023/03/01 05:54:22;;;;;;;1.85;1.27;;;18.90;27.50;;;;;;5054201;28;20103;-55
2023/03/01 05:56:47;;;;;;;1.48;0.90;;;18.90;27.50;;;;;;5053588;28;20460;-54
2023/03/01 05:59:14;;;;;;;1.80;1.20;;;18.90;27.50;;;;;;5053745;28;20033;-56
2023/03/01 06:01:40;;;;;;;1.80;1.10;;;18.90;27.50;;;;;;5053692;28;20052;-52
2023/03/01 06:04:06;;;;;;;1.15;0.80;;;18.90;27.50;;;;;;5054823;28;20017;-54
2023/03/01 06:06:37;;;;;;;1.58;1.10;;;18.90;27.50;;;;;;5055047;28;20037;-53
2023/03/01 06:09:09;;;;;;;1.10;0.90;;;18.90;27.50;;;;;;5053634;28;20111;-55
2023/03/01 06:11:35;;;;;;;3.25;1.42;;;18.90;27.50;;;;;;5052171;28;20020;-55
2023/03/01 06:14:02;;;;;;;1.75;1.20;;;18.90;27.50;;;;;;5051007;28;20102;-54
2023/03/01 06:16:28;;;;;;;2.05;1.02;;;18.90;27.50;;;;;;5054296;28;20044;-54
2023/03/01 06:18:54;;;;;;;1.77;1.05;;;18.90;27.50;;;;;;5053753;28;20025;-54
2023/03/01 06:21:20;;;;;;;1.60;0.93;;;18.90;27.50;;;;;;5054654;28;20112;-54
2023/03/01 06:23:46;;;;;;;2.28;1.05;;;18.90;27.50;;;;;;5054123;28;20090;-55
2023/03/01 06:26:11;;;;;;;1.73;1.20;;;18.90;27.50;;;;;;5052708;28;20029;-51
2023/03/01 06:28:37;;;;;;;1.67;1.17;;;18.90;27.50;;;;;;5054332;28;20055;-54
2023/03/01 06:31:03;;;;;;;2.20;1.08;;;18.90;27.50;;;;;;5052822;28;20029;-52
2023/03/01 06:33:29;;;;;;;1.63;1.02;;;18.90;27.50;;;;;;5055570;28;20083;-52
2023/03/01 06:35:56;;;;;;;2.50;1.23;;;18.90;27.50;;;;;;5052052;28;20025;-54
2023/03/01 06:38:23;;;;;;;1.50;0.95;;;18.90;27.60;;;;;;5052976;28;20475;-54
2023/03/01 06:40:54;;;;;;;2.05;1.20;;;18.90;27.50;;;;;;5053146;28;20028;-55
2023/03/01 06:43:20;;;;;;;3.00;1.25;;;18.90;27.50;;;;;;5051558;28;20120;-55
2023/03/01 06:45:46;;;;;;;1.63;0.88;;;18.90;27.50;;;;;;5054178;28;20348;-51
2023/03/01 06:48:11;;;;;;;2.03;1.08;;;18.80;27.50;;;;;;5057308;28;20047;-54
2023/03/01 06:50:38;;;;;;;1.30;0.95;;;18.80;27.60;;;;;;5053153;28;20031;-53
2023/03/01 06:53:04;;;;;;;2.08;1.40;;;18.80;27.60;;;;;;5050106;28;20035;-54
2023/03/01 06:55:30;;;;;;;1.35;0.90;;;18.80;27.60;;;;;;5051266;28;20029;-54
2023/03/01 06:58:01;;;;;;;1.42;1.05;;;18.80;27.60;;;;;;5052814;28;20032;-54
2023/03/01 07:00:27;;;;;;;1.48;1.08;;;18.80;27.60;;;;;;5050600;28;20086;-55
2023/03/01 07:02:54;;;;;;;1.70;1.13;;;18.80;27.50;;;;;;5052530;28;20029;-55
2023/03/01 07:05:20;;;;;;;3.30;1.20;;;18.90;27.60;;;;;;5049093;28;20056;-55
2023/03/01 07:07:46;;;;;;;1.98;1.15;;;18.80;27.60;;;;;;5051801;28;20059;-55
2023/03/01 07:10:12;;;;;;;1.00;0.90;;;18.80;27.50;;;;;;5053228;28;20032;-52
2023/03/01 07:12:38;;;;;;;2.40;1.20;;;18.80;27.60;;;;;;5051698;28;20361;-53
2023/03/01 07:15:04;;;;;;;1.92;1.38;;;18.80;27.50;;;;;;5050559;28;20040;-61
2023/03/01 07:17:30;;;;;;;1.63;0.95;;;18.80;27.50;;;;;;5050841;28;20040;-54
2023/03/01 07:19:57;;;;;;;1.98;1.50;;;18.80;27.50;;;;;;5053641;28;20021;-55
2023/03/01 07:22:24;;;;;;;1.83;1.15;;;18.80;27.50;;;;;;5051301;28;20045;-56
2023/03/01 07:24:49;;;;;;;1.70;1.15;;;18.80;27.50;;;;;;5051619;28;20433;-54
2023/03/01 07:27:15;;;;;;;2.38;1.25;;;18.80;27.50;;;;;;5050445;28;20033;-55
2023/03/01 07:29:41;;;;;;;1.88;1.23;;;18.80;27.50;;;;;;5053051;28;20510;-54
2023/03/01 07:32:07;;;;;;;1.55;1.10;;;18.80;27.60;;;;;;5048189;28;20437;-55
2023/03/01 07:34:33;;;;;;;1.90;1.08;;;18.80;27.50;;;;;;5053534;28;20357;-56
2023/03/01 07:36:59;;;;;;;2.45;1.10;;;18.80;27.40;;;;;;5053073;28;20055;-52
2023/03/01 07:39:25;;;;;;;2.38;1.48;;;18.80;27.40;;;;;;5052679;28;20021;-52
2023/03/01 07:41:51;;;;;;;2.30;1.33;;;18.80;27.40;;;;;;5051260;28;20494;-53
2023/03/01 07:44:21;;;;;;;2.53;1.15;;;18.80;27.50;;;;;;5051597;28;20541;-53
2023/03/01 07:46:46;;;;;;;1.65;1.20;;;18.80;27.40;;;;;;5051644;28;20040;-54
2023/03/01 07:49:12;;;;;;;1.65;1.10;;;18.80;27.40;;;;;;5052415;28;20021;-54
2023/03/01 07:51:38;;;;;;;1.70;1.10;;;18.80;27.40;;;;;;5048267;28;20025;-53
2023/03/01 07:54:04;;;;;;;2.78;1.60;;;18.80;27.30;;;;;;5053166;28;20044;-54
2023/03/01 07:56:30;;;;;;;2.15;1.40;;;18.80;27.30;;;;;;5049703;28;20449;-55
2023/03/01 07:58:56;;;;;;;2.20;1.30;;;18.80;27.80;;;;;;5040696;28;20036;-52
2023/03/01 08:01:23;;;;;;;2.20;1.40;;;18.80;27.30;;;;;;5036492;28;20425;-50
2023/03/01 08:03:49;;;;;;;3.25;1.40;;;18.80;27.20;;;;;;5033202;28;20461;-52
2023/03/01 08:06:16;;;;;;;2.10;1.30;;;18.80;27.10;;;;;;5047552;28;20044;-54
2023/03/01 08:08:42;;;;;;;2.85;1.23;;;18.80;27.00;;;;;;5058828;28;20032;-51
2023/03/01 08:11:12;;;;;;;1.60;1.20;;;18.80;27.00;;;;;;5053070;28;20056;-52
2023/03/01 08:13:38;;;;;;;3.42;1.20;;;18.80;26.90;;;;;;5049895;28;20453;-51
2023/03/01 08:16:07;;;;;;;2.35;1.30;;;18.80;26.90;;;;;;5043528;28;20048;-51
2023/03/01 08:18:33;;;;;;;2.10;1.52;;;18.80;26.80;;;;;;5052918;28;20078;-55
2023/03/01 08:21:07;;;;;;;3.97;1.60;;;18.80;26.80;;;;;;5053208;28;20036;-55
2023/03/01 08:23:33;;;;;;;2.33;1.60;;;18.80;26.90;;;;;;5053693;28;20121;-56
2023/03/01 08:26:13;;;;;;;2.65;1.40;;;18.80;26.80;;;;;;5064737;28;20039;-53
2023/03/01 08:28:40;;;;;;;2.40;1.45;;;18.80;26.80;;;;;;5059025;28;20021;-52
2023/03/01 08:31:23;;;;;;;2.60;1.85;;;18.80;26.80;;;;;;5052897;28;20025;-50
2023/03/01 08:33:54;;;;;;;1.92;1.38;;;18.80;26.70;;;;;;5047272;28;20028;-53
2023/03/01 08:36:25;;;;;;;2.30;1.65;;;18.80;26.70;;;;;;5051342;28;20083;-55
2023/03/01 08:38:51;;;;;;;3.53;1.85;;;18.80;26.60;;;;;;5048713;28;20059;-55
2023/03/01 08:41:18;;;;;;;3.03;1.80;;;18.80;26.60;;;;;;5051198;28;20427;-53
2023/03/01 08:43:44;;;;;;;2.10;1.60;;;18.80;26.60;;;;;;5049704;28;20094;-56
2023/03/01 08:46:11;;;;;;;4.00;1.80;;;18.80;26.80;;;;;;5045192;28;20463;-53
2023/03/01 08:48:37;;;;;;;3.72;1.83;;;18.80;26.60;;;;;;5047504;28;20394;-53
2023/03/01 08:51:13;;;;;;;2.90;1.67;;;18.90;26.70;;;;;;5051870;28;20109;-54
2023/03/01 08:53:39;;;;;;;2.25;1.63;;;18.90;26.60;;;;;;5042226;28;20047;-52
2023/03/01 08:56:06;;;;;;;3.75;1.95;;;18.90;26.60;;;;;;5044790;28;20021;-55
2023/03/01 08:58:31;;;;;;;2.45;1.88;;;18.90;26.60;;;;;;5042582;28;20033;-53
2023/03/01 09:00:57;;;;;;;3.38;1.60;;;18.90;26.60;;;;;;5043173;28;20122;-54
2023/03/01 09:03:24;;;;;;;2.88;1.60;;;18.90;26.50;;;;;;5039383;28;20087;-54
2023/03/01 09:05:51;;;;;;;2.80;1.73;;;18.90;26.50;;;;;;5045712;28;20337;-52
2023/03/01 09:08:18;;;;;;;1.85;1.40;;;18.90;26.50;;;;;;5039298;28;20123;-53
2023/03/01 09:10:44;;;;;;;2.15;1.80;;;18.90;26.50;;;;;;5042060;28;20096;-53
2023/03/01 09:13:10;;;;;;;1.85;1.38;;;18.90;26.40;;;;;;5036159;28;20136;-55
2023/03/01 09:15:39;;;;;;;1.98;1.38;;;18.90;26.40;;;;;;5034551;28;20463;-54
2023/03/01 09:18:05;;;;;;;2.63;1.52;;;18.90;26.40;;;;;;5042822;28;20464;-54
2023/03/01 09:20:32;;;;;;;1.75;1.30;;;19.00;26.40;;;;;;5042996;28;20025;-49
2023/03/01 09:22:58;;;;;;;2.80;1.90;;;19.00;26.40;;;;;;5048186;28;20037;-54
2023/03/01 09:25:24;;;;;;;2.38;1.40;;;19.00;26.40;;;;;;5041831;28;20108;-51
2023/03/01 09:27:54;;;;;;;1.95;1.30;;;18.90;26.30;;;;;;5047716;28;20167;-51
2023/03/01 09:30:20;;;;;;;2.13;1.23;;;19.00;26.40;;;;;;5043430;28;20029;-51
2023/03/01 09:32:47;;;;;;;1.58;1.25;;;19.00;26.30;;;;;;5045556;28;20091;-54
2023/03/01 09:35:13;;;;;;;2.35;1.52;;;19.00;26.30;;;;;;5045064;28;20041;-54
2023/03/01 09:37:42;;;;;;;1.70;1.23;;;19.00;26.30;;;;;;5046272;28;20076;-56
2023/03/01 09:40:16;;;;;;;2.50;1.50;;;19.00;26.30;;;;;;5047315;28;20029;-52
2023/03/01 09:43:05;;;;;;;1.95;1.50;;;19.00;26.30;;;;;;5047757;28;20085;-53
2023/03/01 09:45:38;;;;;;;1.88;1.30;;;19.00;26.20;;;;;;5053891;28;20031;-55
2023/03/01 09:48:12;;;;;;;2.20;1.30;;;19.00;26.20;;;;;;5042361;28;20092;-53
2023/03/01 09:50:43;;;;;;;3.30;1.25;;;19.00;26.20;;;;;;5051641;28;20025;-53
2023/03/01 09:53:18;;;;;;;2.38;1.60;;;19.00;26.20;;;;;;5040781;28;20030;-52
2023/03/01 09:55:50;;;;;;;3.15;1.70;;;19.00;26.20;;;;;;5043072;28;20044;-52
2023/03/01 09:58:31;;;;;;;2.00;1.50;;;19.00;26.20;;;;;;5042838;28;20033;-50
2023/03/01 10:01:03;;;;;;;2.05;1.40;;;19.00;26.20;;;;;;5039532;28;20039;-54
2023/03/01 10:03:38;;;;;;;4.43;1.50;;;19.00;26.10;;;;;;5043964;28;20910;-54
2023/03/01 10:06:15;;;;;;;3.72;1.70;;;19.00;26.30;;;;;;5040339;28;20103;-54
2023/03/01 10:09:07;;;;;;;5.47;2.05;;;19.00;27.10;;;;;;5055923;28;20112;-50
2023/03/01 10:11:39;;;;;;;5.20;1.98;;;19.00;27.50;;;;;;5041224;28;20037;-59
2023/03/01 10:14:17;;;;;;;3.92;2.33;;;19.00;27.40;;;;;;5040970;28;20436;-54
2023/03/01 10:17:02;;;;;;;4.78;2.05;;;19.00;27.40;;;;;;5046503;28;20357;-55
2023/03/01 10:19:40;;;;;;;4.65;2.13;;;19.00;27.30;;;;;;5053707;28;20112;-54
2023/03/01 10:22:28;;;;;;;4.05;2.05;;;19.10;27.10;;;;;;5052820;28;20090;-53
2023/03/01 10:24:57;;;;;;;2.75;1.70;;;19.10;27.00;;;;;;5054288;28;20025;-54
2023/03/01 10:27:44;;;;;;;2.85;1.85;;;19.10;26.90;;;;;;5053951;28;20037;-53
2023/03/01 10:30:19;;;;;;;4.28;2.13;;;19.10;26.90;;;;;;5053717;28;20110;-52
2023/03/01 10:32:51;;;;;;;4.45;1.90;;;19.00;26.70;;;;;;5054065;28;20037;-52
2023/03/01 10:35:29;;;;;;;3.92;1.60;;;19.10;26.70;;;;;;5052150;28;20457;-49
2023/03/01 10:38:09;;;;;;;4.25;1.75;;;19.10;26.60;;;;;;5039068;28;20044;-50
2023/03/01 10:40:36;;;;;;;3.15;1.70;;;19.10;27.20;;;;;;5038192;28;20026;-53
2023/03/01 10:43:04;;;;;;;3.88;1.98;;;19.10;27.80;;;;;;5037915;28;20026;-51
2023/03/01 10:45:35;;;;;;;4.25;1.80;;;19.10;28.00;;;;;;5059072;28;20039;-50
2023/03/01 10:48:16;;;;;;;3.08;1.45;;;19.10;28.30;;;;;;5046654;28;20021;-52
2023/03/01 10:50:44;;;;;;;4.18;1.77;;;19.10;27.70;;;;;;5053415;28;20021;-53
2023/03/01 10:53:40;;;;;;;2.78;1.52;;;19.20;27.60;;;;;;5054034;28;20408;-53
2023/03/01 10:56:15;;;;;;;3.38;1.75;;;19.20;27.40;;;;;;5053316;28;20460;-54
2023/03/01 10:58:58;;;;;;;2.70;1.50;;;19.20;27.30;;;;;;5053270;28;20032;-51
2023/03/01 11:01:35;;;;;;;3.20;1.60;;;19.20;27.20;;;;;;5051141;28;20043;-51
2023/03/01 11:04:06;;;;;;;2.90;1.60;;;19.20;27.10;;;;;;5055098;28;20052;-52
2023/03/01 11:06:38;;;;;;;2.78;1.45;;;19.20;27.00;;;;;;5051924;28;20024;-51
2023/03/01 11:09:22;;;;;;;1.60;1.17;;;19.20;26.90;;;;;;5050812;28;20082;-52
2023/03/01 11:11:56;;;;;;;3.83;1.48;;;19.20;26.80;;;;;;5053048;28;20088;-51
2023/03/01 11:14:25;;;;;;;2.63;1.23;;;19.20;26.70;;;;;;5053168;28;20083;-53
2023/03/01 11:17:03;;;;;;;2.45;1.23;;;19.20;26.70;;;;;;5053770;28;20357;-50
2023/03/01 11:19:29;;;;;;;2.47;1.35;;;19.20;26.60;;;;;;5053795;28;20072;-49
2023/03/01 11:21:55;;;;;;;2.30;1.17;;;19.20;26.50;;;;;;5060711;28;20102;-51
2023/03/01 11:24:39;;;;;;;2.65;1.30;;;19.20;26.50;;;;;;5060847;28;20428;-54
2023/03/01 11:27:36;;;;;;;3.05;1.35;;;19.20;26.40;;;;;;5047971;28;20021;-54
2023/03/01 11:30:12;;;;;;;1.75;1.20;;;19.20;26.50;;;;;;5050152;28;20029;-53
2023/03/01 11:33:10;;;;;;;1.92;1.20;;;19.20;27.60;;;;;;5047791;28;20045;-52
2023/03/01 11:35:42;;;;;;;2.00;1.17;;;19.20;28.20;;;;;;5046869;28;20033;-52
2023/03/01 11:38:26;;;;;;;5.25;1.83;;;19.30;28.60;;;;;;5047911;28;20099;-52
2023/03/01 11:41:18;;;;;;;2.90;1.30;;;19.30;28.80;;;;;;5045162;28;20033;-51
2023/03/01 11:43:58;;;;;;;2.47;1.40;;;19.40;29.00;;;;;;5045959;28;20175;-52
2023/03/01 11:46:39;;;;;;;2.15;1.10;;;19.40;29.10;;;;;;5048530;28;20025;-51
2023/03/01 11:49:32;;;;;;;2.67;1.25;;;19.50;29.20;;;;;;5044942;28;20037;-51
2023/03/01 11:52:10;;;;;;;2.42;1.10;;;19.50;29.30;;;;;;5043841;28;20392;-54
2023/03/01 11:54:44;;;;;;;7.45;2.00;;;19.60;29.40;;;;;;5041182;28;20027;-56
2023/03/01 11:57:41;;;;;;;1.50;0.95;;;19.60;29.50;;;;;;5043900;28;20095;-52
2023/03/01 12:00:13;;;;;;;2.55;1.20;;;19.60;29.40;;;;;;5048509;28;20032;-52
2023/03/01 12:03:13;;;;;;;3.08;1.40;;;19.70;29.50;;;;;;5039620;28;20388;-55
2023/03/01 12:06:03;;;;;;;1.70;1.10;;;19.70;29.50;;;;;;5048593;28;20044;-52
2023/03/01 12:08:41;;;;;;;1.33;1.00;;;19.70;29.40;;;;;;5040934;28;20060;-49
2023/03/01 12:11:38;;;;;;;1.70;1.10;;;19.80;29.20;;;;;;5048854;28;20068;-54
2023/03/01 12:14:31;;;;;;;2.42;1.10;;;19.80;29.00;;;;;;5047478;28;20047;-52
2023/03/01 12:17:40;;;;;;;2.38;1.40;;;19.90;28.70;;;;;;5045321;28;20071;-54
2023/03/01 12:20:34;;;;;;;1.63;1.23;;;19.90;28.30;;;;;;5030504;28;20356;-53
2023/03/01 12:23:12;;;;;;;3.35;1.33;;;19.80;27.80;;;;;;5045439;28;20034;-50
2023/03/01 12:25:56;;;;;;;2.90;1.40;;;19.90;27.60;;;;;;5046769;28;20029;-57
2023/03/01 12:28:47;;;;;;;2.75;1.42;;;19.90;27.40;;;;;;5051437;28;20201;-58
2023/03/01 12:31:29;;;;;;;3.13;1.38;;;19.90;27.30;;;;;;5051402;28;20037;-56
2023/03/01 12:34:20;;;;;;;3.00;1.70;;;19.90;27.20;;;;;;5048951;28;20033;-59
2023/03/01 12:37:13;;;;;;;2.05;1.13;;;20.00;27.20;;;;;;5051385;28;20052;-58
2023/03/01 12:40:14;;;;;;;3.47;1.50;;;20.00;27.20;;;;;;5052077;28;20028;-57
2023/03/01 12:43:05;;;;;;;1.92;1.10;;;20.20;27.30;;;;;;5053326;28;20033;-56
2023/03/01 12:46:07;;;;;;;1.42;1.05;;;20.30;27.30;;;;;;5045867;28;20037;-57
2023/03/01 12:49:20;;;;;;;2.47;1.20;;;20.40;27.30;;;;;;5038589;28;20079;-57
2023/03/01 12:52:27;;;;;;;4.78;1.00;;;20.50;27.20;;;;;;5042200;28;20124;-58
2023/03/01 12:54:55;;;;;;;2.78;1.40;;;20.70;27.20;;;;;;5044976;28;20029;-56
2023/03/01 12:57:40;;;;;;;1.70;1.00;;;20.80;27.10;;;;;;5046768;28;20040;-57
2023/03/01 13:00:18;;;;;;;2.10;1.10;;;20.90;27.10;;;;;;5040968;28;20080;-58
2023/03/01 13:02:58;;;;;;;2.72;1.73;;;21.00;26.90;;;;;;5044974;28;20318;-57
2023/03/01 13:05:59;;;;;;;1.52;0.93;;;21.10;26.90;;;;;;5041963;28;20033;-56
2023/03/01 13:08:38;;;;;;;1.85;0.88;;;21.20;26.90;;;;;;5045032;28;20049;-57
2023/03/01 13:11:11;;;;;;;2.00;1.10;;;21.30;26.90;;;;;;5052483;28;20699;-56
2023/03/01 13:13:37;;;;;;;2.17;0.93;;;21.40;26.80;;;;;;5058445;28;20041;-56